createdAt,value
2019-01-28T00:02:35.210Z,14.57
2019-01-28T00:03:58.708Z,13.50
2019-01-28T00:05:22.209Z,20.73
2019-01-28T00:06:45.707Z,16.80
2019-01-28T00:10:28.582Z,20.03
2019-01-28T00:14:11.801Z,13.13
2019-01-28T00:15:35.298Z,18.33
2019-01-28T00:17:36.829Z,13.67
2019-01-28T00:19:00.435Z,15.23
2019-01-28T00:20:24.011Z,17.70
2019-01-28T00:21:47.499Z,13.90
2019-01-28T00:23:11.085Z,15.33
2019-01-28T00:26:39.395Z,17.47
2019-01-28T00:28:02.887Z,21.47
2019-01-28T00:29:26.385Z,15.77
2019-01-28T00:30:49.884Z,12.87
2019-01-28T00:32:13.379Z,17.83
2019-01-28T00:33:36.869Z,15.67
2019-01-28T00:35:00.375Z,18.60
2019-01-28T00:36:23.867Z,17.00
2019-01-28T00:37:47.354Z,14.97
2019-01-28T00:39:10.926Z,18.97
2019-01-28T00:40:34.427Z,14.37
2019-01-28T00:41:57.922Z,17.90
2019-01-28T00:43:21.414Z,11.10
2019-01-28T00:44:44.913Z,18.47
2019-01-28T00:46:08.410Z,15.60
2019-01-28T00:47:24.310Z,16.63
2019-01-28T00:48:40.999Z,14.10
2019-01-28T00:49:57.318Z,15.47
2019-01-28T00:51:13.826Z,20.97
2019-01-28T00:52:29.669Z,15.63
2019-01-28T00:53:46.391Z,14.90
2019-01-28T00:58:29.139Z,13.60
2019-01-28T00:59:52.669Z,17.27
2019-01-28T01:01:16.162Z,18.67
2019-01-28T01:02:39.735Z,15.80
2019-01-28T01:04:03.301Z,15.40
2019-01-28T01:05:26.805Z,17.53
2019-01-28T01:06:50.310Z,18.23
2019-01-28T01:08:13.875Z,15.63
2019-01-28T01:09:37.442Z,13.47
2019-01-28T01:11:00.941Z,21.43
2019-01-28T01:12:24.431Z,20.27
2019-01-28T01:13:47.920Z,17.10
2019-01-28T01:17:01.868Z,19.83
2019-01-28T01:18:25.359Z,18.90
2019-01-28T01:19:48.842Z,19.10
2019-01-28T01:21:12.343Z,18.97
2019-01-28T01:22:35.831Z,19.33
2019-01-28T01:25:23.634Z,22.20
2019-01-28T01:26:47.118Z,18.70
2019-01-28T01:29:34.910Z,21.23
2019-01-28T01:30:58.414Z,18.77
2019-01-28T01:32:21.915Z,25.67
2019-01-28T01:33:45.470Z,23.07
2019-01-28T01:35:09.035Z,19.80
2019-01-28T01:36:32.534Z,17.77
2019-01-28T01:37:56.027Z,19.70
2019-01-28T01:39:19.514Z,21.03
2019-01-28T01:40:43.026Z,21.00
2019-01-28T01:42:06.511Z,20.93
2019-01-28T01:43:29.994Z,18.30
2019-01-28T01:48:39.530Z,17.47
2019-01-28T01:51:50.077Z,16.27
2019-01-28T01:53:06.638Z,20.60
2019-01-28T01:54:23.130Z,18.73
2019-01-28T01:55:39.868Z,19.00
2019-01-28T01:56:56.504Z,20.57
2019-01-28T01:58:13.070Z,15.07
2019-01-28T01:59:29.367Z,24.10
2019-01-28T02:00:46.032Z,17.57
2019-01-28T02:03:56.807Z,16.47
2019-01-28T02:05:11.423Z,18.53
2019-01-28T02:06:34.930Z,16.37
2019-01-28T02:07:58.414Z,16.07
2019-01-28T02:09:21.979Z,15.37
2019-01-28T02:10:45.472Z,18.00
2019-01-28T02:12:09.054Z,16.07
2019-01-28T02:13:32.557Z,17.73
2019-01-28T02:14:56.061Z,19.10
2019-01-28T02:16:19.581Z,18.00
2019-01-28T02:17:43.171Z,21.83
2019-01-28T02:19:06.670Z,18.47
2019-01-28T02:20:30.181Z,19.30
2019-01-28T02:21:53.718Z,15.50
2019-01-28T02:23:17.246Z,20.40
2019-01-28T02:24:40.749Z,15.60
2019-01-28T02:26:04.334Z,18.43
2019-01-28T02:27:27.845Z,16.73
2019-01-28T02:28:51.357Z,14.17
2019-01-28T02:32:18.910Z,16.77
2019-01-28T02:33:42.522Z,16.73
2019-01-28T02:35:06.201Z,19.07
2019-01-28T02:36:29.761Z,15.10
2019-01-28T02:37:53.291Z,17.93
2019-01-28T02:39:16.786Z,20.00
2019-01-28T02:40:40.368Z,16.87
2019-01-28T02:42:03.958Z,15.90
2019-01-28T02:43:27.494Z,21.83
2019-01-28T02:44:50.994Z,18.10
2019-01-28T02:46:14.510Z,16.10
2019-01-28T02:47:38.033Z,19.43
2019-01-28T02:49:01.536Z,16.47
2019-01-28T02:50:25.047Z,20.27
2019-01-28T02:51:48.578Z,19.17
2019-01-28T02:55:31.793Z,15.57
2019-01-28T02:56:55.330Z,15.67
2019-01-28T02:58:18.823Z,13.93
2019-01-28T02:59:42.425Z,16.27
2019-01-28T03:01:06.017Z,18.77
2019-01-28T03:02:29.538Z,20.33
2019-01-28T03:05:17.667Z,15.50
2019-01-28T03:06:41.167Z,17.87
2019-01-28T03:08:04.997Z,18.43
2019-01-28T03:09:28.498Z,18.70
2019-01-28T03:10:52.078Z,15.73
2019-01-28T03:12:15.749Z,19.47
2019-01-28T03:15:03.776Z,18.50
2019-01-28T03:16:27.347Z,19.43
2019-01-28T03:17:50.899Z,17.50
2019-01-28T03:19:14.403Z,17.83
2019-01-28T03:22:20.539Z,15.43
2019-01-28T03:25:26.727Z,15.23
2019-01-28T03:28:32.827Z,18.47
2019-01-28T03:29:56.326Z,16.83
2019-01-28T03:31:19.835Z,21.47
2019-01-28T03:32:43.399Z,20.83
2019-01-28T03:34:06.914Z,16.67
2019-01-28T03:35:30.423Z,18.37
2019-01-28T03:38:18.254Z,21.03
2019-01-28T03:39:41.865Z,16.80
2019-01-28T03:41:05.475Z,16.63
2019-01-28T03:42:29.002Z,19.40
2019-01-28T03:44:10.414Z,18.33
2019-01-28T03:45:33.927Z,21.10
2019-01-28T03:46:49.910Z,17.07
2019-01-28T03:48:04.780Z,16.17
2019-01-28T03:50:52.595Z,21.20
2019-01-28T03:54:01.584Z,21.77
2019-01-28T03:55:25.089Z,17.83
2019-01-28T03:56:48.600Z,19.17
2019-01-28T03:58:12.199Z,21.13
2019-01-28T03:59:35.711Z,17.53
2019-01-28T04:00:59.218Z,23.77
2019-01-28T04:02:22.750Z,20.17
2019-01-28T04:04:04.154Z,17.50
2019-01-28T04:05:27.770Z,20.03
2019-01-28T04:06:51.330Z,17.07
2019-01-28T04:08:14.866Z,20.10
2019-01-28T04:09:38.407Z,19.37
2019-01-28T04:11:19.562Z,22.57
2019-01-28T04:12:43.133Z,23.30
2019-01-28T04:14:07.171Z,20.37
2019-01-28T04:15:32.527Z,21.13
2019-01-28T04:16:55.990Z,17.67
2019-01-28T04:18:19.505Z,21.83
2019-01-28T04:19:43.039Z,23.83
2019-01-28T04:21:06.564Z,21.67
2019-01-28T04:22:30.154Z,23.10
2019-01-28T04:23:52.231Z,19.23
2019-01-28T04:25:15.859Z,17.87
2019-01-28T04:26:39.360Z,21.97
2019-01-28T04:28:02.871Z,20.60
2019-01-28T04:29:26.387Z,20.47
2019-01-28T04:30:49.911Z,21.97
2019-01-28T04:33:37.734Z,21.33
2019-01-28T04:35:01.235Z,21.17
2019-01-28T04:36:24.743Z,21.80
2019-01-28T04:37:48.245Z,24.40
2019-01-28T04:39:11.772Z,21.87
2019-01-28T04:40:53.049Z,26.10
2019-01-28T04:42:16.559Z,20.90
2019-01-28T04:43:40.143Z,23.57
2019-01-28T04:46:47.158Z,23.57
2019-01-28T04:48:03.150Z,20.03
2019-01-28T04:49:19.078Z,24.63
2019-01-28T04:50:35.719Z,22.87
2019-01-28T04:51:52.352Z,22.17
2019-01-28T04:53:08.855Z,24.37
2019-01-28T04:54:25.439Z,20.50
2019-01-28T04:55:42.095Z,23.63
2019-01-28T04:56:58.650Z,21.00
2019-01-28T04:58:15.234Z,27.53
2019-01-28T04:59:31.730Z,20.00
2019-01-28T05:00:47.903Z,22.73
2019-01-28T05:02:04.011Z,27.57
2019-01-28T05:03:20.554Z,23.87
2019-01-28T05:04:37.290Z,22.10
2019-01-28T05:05:53.930Z,22.50
2019-01-28T05:07:10.586Z,21.67
2019-01-28T05:08:27.083Z,25.40
2019-01-28T05:11:26.994Z,27.73
2019-01-28T05:12:43.667Z,24.33
2019-01-28T05:13:47.941Z,22.43
2019-01-28T05:14:52.221Z,23.77
2019-01-28T05:15:56.512Z,24.90
2019-01-28T05:17:00.826Z,26.83
2019-01-28T05:18:05.243Z,23.90
2019-01-28T05:19:09.602Z,23.73
2019-01-28T05:20:16.030Z,23.70
2019-01-28T05:21:20.374Z,26.20
2019-01-28T05:22:24.646Z,26.00
2019-01-28T05:23:28.946Z,24.37
2019-01-28T05:24:33.226Z,28.33
2019-01-28T05:25:37.590Z,25.27
2019-01-28T05:26:41.857Z,28.13
2019-01-28T05:27:46.437Z,30.43
2019-01-28T05:28:50.706Z,28.17
2019-01-28T05:29:54.983Z,24.17
2019-01-28T05:30:59.249Z,26.43
2019-01-28T05:32:03.594Z,27.23
2019-01-28T05:33:08.739Z,24.93
2019-01-28T05:34:13.134Z,25.93
2019-01-28T05:35:18.082Z,25.30
2019-01-28T05:36:22.433Z,25.73
2019-01-28T05:37:26.689Z,27.70
2019-01-28T05:38:31.041Z,30.70
2019-01-28T05:39:35.309Z,26.10
2019-01-28T05:40:39.582Z,27.30
2019-01-28T05:41:43.854Z,29.37
2019-01-28T05:42:48.208Z,27.37
2019-01-28T05:43:52.506Z,28.90
2019-01-28T05:44:56.786Z,32.87
2019-01-28T05:46:01.110Z,27.93
2019-01-28T05:47:05.511Z,30.73
2019-01-28T05:48:09.808Z,27.70
2019-01-28T05:49:14.104Z,31.97
2019-01-28T05:50:18.553Z,29.17
2019-01-28T05:51:22.838Z,29.73
2019-01-28T05:52:27.150Z,26.63
2019-01-28T05:53:31.406Z,29.40
2019-01-28T05:54:35.762Z,30.50
2019-01-28T05:55:40.135Z,27.13
2019-01-28T05:56:44.419Z,29.80
2019-01-28T05:57:48.851Z,29.27
2019-01-28T05:58:53.179Z,31.13
2019-01-28T05:59:57.449Z,25.07
2019-01-28T06:01:01.734Z,27.40
2019-01-28T06:02:06.103Z,27.70
2019-01-28T06:03:10.387Z,33.43
2019-01-28T06:04:14.725Z,29.50
2019-01-28T06:05:19.170Z,26.27
2019-01-28T06:06:23.483Z,33.17
2019-01-28T06:07:27.874Z,29.67
2019-01-28T06:08:32.174Z,27.20
2019-01-28T06:09:36.433Z,30.37
2019-01-28T06:10:40.815Z,32.23
2019-01-28T06:11:45.105Z,28.97
2019-01-28T06:12:49.373Z,28.43
2019-01-28T06:13:53.641Z,26.40
2019-01-28T06:14:57.930Z,26.73
2019-01-28T06:16:02.278Z,26.13
2019-01-28T06:17:06.549Z,30.63
2019-01-28T06:18:10.842Z,32.10
2019-01-28T06:19:15.178Z,26.07
2019-01-28T06:20:20.620Z,26.70
2019-01-28T06:21:24.898Z,27.30
2019-01-28T06:22:29.195Z,28.13
2019-01-28T06:23:33.463Z,28.57
2019-01-28T06:24:37.726Z,32.40
2019-01-28T06:25:42.004Z,29.27
2019-01-28T06:26:46.278Z,26.33
2019-01-28T06:27:50.610Z,29.70
2019-01-28T06:28:54.873Z,27.97
2019-01-28T06:29:59.138Z,35.43
2019-01-28T06:31:03.510Z,31.47
2019-01-28T06:32:07.770Z,29.80
2019-01-28T06:33:12.037Z,23.57
2019-01-28T06:34:16.301Z,29.77
2019-01-28T06:35:20.723Z,28.73
2019-01-28T06:36:25.001Z,26.30
2019-01-28T06:37:29.332Z,27.20
2019-01-28T06:38:33.650Z,29.67
2019-01-28T06:39:37.942Z,27.40
2019-01-28T06:40:43.058Z,25.17
2019-01-28T06:41:47.402Z,27.73
2019-01-28T06:42:51.742Z,33.13
2019-01-28T06:43:56.014Z,29.37
2019-01-28T06:45:02.159Z,29.93
2019-01-28T06:46:06.274Z,30.63
2019-01-28T06:47:10.665Z,29.33
2019-01-28T06:48:15.593Z,28.60
2019-01-28T06:49:19.858Z,29.97
2019-01-28T06:50:24.482Z,26.33
2019-01-28T06:51:28.769Z,29.47
2019-01-28T06:52:33.035Z,29.37
2019-01-28T06:53:37.313Z,26.63
2019-01-28T06:54:41.565Z,30.67
2019-01-28T06:55:45.843Z,28.93
2019-01-28T06:56:50.109Z,28.40
2019-01-28T06:57:54.374Z,32.00
2019-01-28T06:58:58.646Z,30.30
2019-01-28T07:00:02.926Z,28.30
2019-01-28T07:01:07.286Z,25.90
2019-01-28T07:02:11.626Z,31.73
2019-01-28T07:03:16.142Z,25.73
2019-01-28T07:04:20.435Z,27.00
2019-01-28T07:05:24.847Z,30.27
2019-01-28T07:06:29.281Z,28.57
2019-01-28T07:07:33.551Z,25.87
2019-01-28T07:08:37.889Z,28.43
2019-01-28T07:09:42.162Z,29.27
2019-01-28T07:10:46.428Z,28.20
2019-01-28T07:11:50.710Z,27.00
2019-01-28T07:12:55.064Z,28.50
2019-01-28T07:13:59.326Z,31.10
2019-01-28T07:15:05.242Z,33.20
2019-01-28T07:16:09.509Z,30.83
2019-01-28T07:17:13.785Z,28.13
2019-01-28T07:18:18.091Z,29.37
2019-01-28T07:19:22.364Z,30.17
2019-01-28T07:20:29.973Z,28.50
2019-01-28T07:21:34.263Z,32.77
2019-01-28T07:22:38.542Z,25.77
2019-01-28T07:23:42.806Z,26.57
2019-01-28T07:24:47.098Z,29.23
2019-01-28T07:25:51.356Z,28.73
2019-01-28T07:26:55.648Z,28.73
2019-01-28T07:28:00.019Z,27.60
2019-01-28T07:29:04.423Z,31.57
2019-01-28T07:30:11.710Z,28.83
2019-01-28T07:31:16.006Z,26.60
2019-01-28T07:32:20.341Z,31.13
2019-01-28T07:33:24.630Z,29.40
2019-01-28T07:34:28.918Z,26.87
2019-01-28T07:35:33.322Z,30.93
2019-01-28T07:36:37.666Z,25.30
2019-01-28T07:37:42.042Z,26.60
2019-01-28T07:38:46.331Z,26.10
2019-01-28T07:39:50.585Z,26.50
2019-01-28T07:40:54.878Z,27.90
2019-01-28T07:41:59.148Z,27.07
2019-01-28T07:43:03.417Z,28.73
2019-01-28T07:44:07.691Z,26.70
2019-01-28T07:45:15.682Z,26.27
2019-01-28T07:46:20.055Z,28.97
2019-01-28T07:47:24.402Z,29.30
2019-01-28T07:48:28.706Z,26.87
2019-01-28T07:49:32.966Z,27.43
2019-01-28T07:50:37.377Z,27.33
2019-01-28T07:51:41.662Z,24.73
2019-01-28T07:52:45.994Z,26.93
2019-01-28T07:53:50.278Z,30.97
2019-01-28T07:54:54.570Z,29.27
2019-01-28T07:55:58.926Z,27.03
2019-01-28T07:57:03.191Z,25.00
2019-01-28T07:58:07.471Z,25.07
2019-01-28T07:59:11.758Z,27.83
2019-01-28T08:00:19.535Z,25.10
2019-01-28T08:01:24.003Z,24.07
2019-01-28T08:02:28.405Z,25.90
2019-01-28T08:03:32.754Z,23.50
2019-01-28T08:04:37.025Z,24.20
2019-01-28T08:05:41.360Z,22.33
2019-01-28T08:06:45.793Z,26.00
2019-01-28T08:07:50.073Z,38.23
2019-01-28T08:08:54.355Z,69.60
2019-01-28T08:09:58.625Z,64.17
2019-01-28T08:11:02.973Z,44.10
2019-01-28T08:12:07.313Z,39.97
2019-01-28T08:13:11.658Z,26.37
2019-01-28T08:14:15.962Z,25.50
2019-01-28T08:15:21.622Z,23.57
2019-01-28T08:16:25.923Z,22.63
2019-01-28T08:17:30.194Z,22.23
2019-01-28T08:18:34.497Z,24.60
2019-01-28T08:19:38.772Z,21.10
2019-01-28T08:20:43.042Z,24.23
2019-01-28T08:21:47.334Z,25.13
2019-01-28T08:22:51.681Z,22.67
2019-01-28T08:23:56.058Z,22.20
2019-01-28T08:25:00.468Z,24.67
2019-01-28T08:26:05.212Z,21.63
2019-01-28T08:27:09.505Z,24.13
2019-01-28T08:28:13.773Z,23.37
2019-01-28T08:29:18.045Z,21.03
2019-01-28T08:30:36.698Z,25.43
2019-01-28T08:31:40.974Z,22.93
2019-01-28T08:32:45.322Z,25.13
2019-01-28T08:33:49.601Z,21.27
2019-01-28T08:34:53.950Z,22.63
2019-01-28T08:35:58.242Z,21.40
2019-01-28T08:37:02.504Z,21.40
2019-01-28T08:38:07.017Z,20.43
2019-01-28T08:39:11.438Z,19.67
2019-01-28T08:40:15.942Z,21.87
2019-01-28T08:41:20.206Z,20.30
2019-01-28T08:42:24.478Z,19.57
2019-01-28T08:43:28.757Z,19.00
2019-01-28T08:44:33.033Z,20.97
2019-01-28T08:45:37.454Z,17.27
2019-01-28T08:46:41.729Z,17.97
2019-01-28T08:47:46.094Z,21.40
2019-01-28T08:48:50.370Z,18.70
2019-01-28T08:49:54.641Z,20.87
2019-01-28T08:50:58.986Z,19.90
2019-01-28T08:52:03.422Z,21.13
2019-01-28T08:53:07.714Z,17.20
2019-01-28T08:54:11.977Z,19.20
2019-01-28T08:55:18.232Z,15.90
2019-01-28T08:56:23.398Z,19.77
2019-01-28T08:57:27.806Z,19.20
2019-01-28T08:58:32.094Z,19.93
2019-01-28T08:59:36.454Z,17.27
2019-01-28T09:00:42.014Z,19.70
2019-01-28T09:01:46.322Z,18.53
2019-01-28T09:02:50.859Z,20.73
2019-01-28T09:03:55.125Z,17.77
2019-01-28T09:04:59.411Z,18.07
2019-01-28T09:06:03.753Z,20.47
2019-01-28T09:07:08.031Z,19.83
2019-01-28T09:08:12.407Z,20.17
2019-01-28T09:09:16.814Z,20.03
2019-01-28T09:10:23.399Z,20.90
2019-01-28T09:11:27.774Z,18.70
2019-01-28T09:12:32.058Z,23.47
2019-01-28T09:13:36.374Z,20.33
2019-01-28T09:14:40.650Z,20.90
2019-01-28T09:15:45.087Z,19.10
2019-01-28T09:16:49.432Z,20.17
2019-01-28T09:17:53.846Z,22.97
2019-01-28T09:18:58.113Z,20.27
2019-01-28T09:20:02.489Z,24.23
2019-01-28T09:21:06.829Z,23.27
2019-01-28T09:22:11.383Z,19.43
2019-01-28T09:23:15.682Z,22.13
2019-01-28T09:24:19.959Z,19.53
2019-01-28T09:25:24.382Z,19.80
2019-01-28T09:26:28.672Z,18.33
2019-01-28T09:27:33.035Z,16.47
2019-01-28T09:28:37.386Z,19.73
2019-01-28T09:29:41.650Z,19.13
2019-01-28T09:30:46.001Z,21.93
2019-01-28T09:31:50.358Z,19.13
2019-01-28T09:32:54.806Z,17.67
2019-01-28T09:33:59.082Z,16.53
2019-01-28T09:35:03.701Z,17.47
2019-01-28T09:36:08.050Z,19.53
2019-01-28T09:37:12.649Z,18.93
2019-01-28T09:38:18.594Z,15.40
2019-01-28T09:39:22.908Z,16.93
2019-01-28T09:40:29.665Z,18.67
2019-01-28T09:41:35.601Z,16.83
2019-01-28T09:42:40.146Z,18.20
2019-01-28T09:43:44.434Z,18.57
2019-01-28T09:44:48.773Z,19.33
2019-01-28T09:45:53.123Z,14.00
2019-01-28T09:46:57.394Z,19.27
2019-01-28T09:48:01.822Z,18.63
2019-01-28T09:49:06.165Z,19.67
2019-01-28T09:50:10.710Z,14.23
2019-01-28T09:51:14.982Z,15.10
2019-01-28T09:52:19.407Z,16.73
2019-01-28T09:53:23.754Z,16.33
2019-01-28T09:54:28.169Z,17.23
2019-01-28T09:55:32.739Z,15.77
2019-01-28T09:56:37.098Z,17.03
2019-01-28T09:57:41.526Z,17.70
2019-01-28T09:58:45.830Z,18.30
2019-01-28T09:59:50.238Z,18.10
2019-01-28T10:00:54.593Z,19.47
2019-01-28T10:01:58.866Z,17.73
2019-01-28T10:03:03.205Z,15.77
2019-01-28T10:04:07.471Z,17.47
2019-01-28T10:05:11.890Z,17.17
2019-01-28T10:06:16.242Z,14.50
2019-01-28T10:07:20.539Z,17.17
2019-01-28T10:08:24.825Z,15.47
2019-01-28T10:09:29.166Z,18.23
2019-01-28T10:10:33.507Z,17.60
2019-01-28T10:11:37.789Z,18.33
2019-01-28T10:12:42.062Z,16.80
2019-01-28T10:13:46.406Z,16.07
2019-01-28T10:14:50.742Z,17.40
2019-01-28T10:15:55.085Z,15.63
2019-01-28T10:16:59.380Z,15.30
2019-01-28T10:18:03.794Z,18.63
2019-01-28T10:19:08.130Z,14.47
2019-01-28T10:20:16.761Z,16.20
2019-01-28T10:21:21.110Z,18.63
2019-01-28T10:22:25.416Z,14.63
2019-01-28T10:23:29.674Z,16.90
2019-01-28T10:24:33.958Z,18.33
2019-01-28T10:25:38.441Z,18.87
2019-01-28T10:26:42.798Z,19.10
2019-01-28T10:27:47.227Z,19.27
2019-01-28T10:28:52.683Z,15.90
2019-01-28T10:29:57.066Z,17.87
2019-01-28T10:31:01.378Z,19.70
2019-01-28T10:32:05.649Z,16.27
2019-01-28T10:33:10.594Z,16.53
2019-01-28T10:34:14.929Z,17.47
2019-01-28T10:35:19.550Z,17.57
2019-01-28T10:36:24.110Z,14.27
2019-01-28T10:37:28.385Z,18.33
2019-01-28T10:38:32.666Z,17.00
2019-01-28T10:39:37.126Z,16.43
2019-01-28T10:40:41.926Z,16.87
2019-01-28T10:41:46.294Z,15.57
2019-01-28T10:42:50.630Z,15.07
2019-01-28T10:43:54.914Z,17.87
2019-01-28T10:44:59.253Z,14.07
2019-01-28T10:46:03.670Z,14.87
2019-01-28T10:47:08.033Z,14.97
2019-01-28T10:48:12.882Z,16.87
2019-01-28T10:49:17.226Z,18.33
2019-01-28T10:50:21.769Z,17.03
2019-01-28T10:51:26.220Z,15.47
2019-01-28T10:52:30.486Z,18.43
2019-01-28T10:53:35.601Z,18.43
2019-01-28T10:54:39.870Z,14.90
2019-01-28T10:55:44.138Z,13.93
2019-01-28T10:56:48.491Z,13.07
2019-01-28T10:57:52.839Z,19.37
2019-01-28T10:58:57.183Z,15.00
2019-01-28T11:00:01.456Z,17.13
2019-01-28T11:01:05.889Z,16.13
2019-01-28T11:02:10.944Z,14.97
2019-01-28T11:03:17.333Z,15.07
2019-01-28T11:04:21.621Z,14.43
2019-01-28T11:05:26.029Z,15.53
2019-01-28T11:06:30.365Z,16.17
2019-01-28T11:07:34.689Z,12.00
2019-01-28T11:08:39.038Z,15.23
2019-01-28T11:09:43.362Z,15.47
2019-01-28T11:10:47.839Z,16.77
2019-01-28T11:11:52.247Z,15.27
2019-01-28T11:12:56.734Z,14.43
2019-01-28T11:14:01.145Z,13.50
2019-01-28T11:15:07.943Z,14.73
2019-01-28T11:16:12.353Z,15.13
2019-01-28T11:17:16.789Z,13.10
2019-01-28T11:18:26.501Z,16.00
2019-01-28T11:19:32.258Z,16.87
2019-01-28T11:20:36.805Z,14.87
2019-01-28T11:21:41.186Z,13.87
2019-01-28T11:22:45.693Z,18.17
2019-01-28T11:23:50.085Z,14.03
2019-01-28T11:24:54.393Z,14.70
2019-01-28T11:25:58.832Z,14.27
2019-01-28T11:27:03.289Z,15.13
2019-01-28T11:28:07.760Z,11.47
2019-01-28T11:29:12.051Z,13.77
2019-01-28T11:30:19.344Z,17.60
2019-01-28T11:31:23.668Z,18.87
2019-01-28T11:32:28.015Z,13.40
2019-01-28T11:33:32.369Z,15.77
2019-01-28T11:34:36.687Z,17.00
2019-01-28T11:35:41.817Z,15.00
2019-01-28T11:36:46.229Z,18.27
2019-01-28T11:37:50.546Z,14.03
2019-01-28T11:38:55.172Z,14.00
2019-01-28T11:39:59.626Z,13.83
2019-01-28T11:41:04.293Z,12.93
2019-01-28T11:42:08.745Z,14.90
2019-01-28T11:43:13.362Z,15.43
2019-01-28T11:44:17.719Z,13.67
2019-01-28T11:45:27.957Z,11.87
2019-01-28T11:46:32.277Z,15.57
2019-01-28T11:47:36.572Z,15.80
2019-01-28T11:48:40.933Z,13.10
2019-01-28T11:49:45.396Z,18.23
2019-01-28T11:50:55.830Z,14.37
2019-01-28T11:51:55.914Z,13.13
2019-01-28T11:53:00.321Z,13.97
2019-01-28T11:54:05.071Z,13.90
2019-01-28T11:55:09.485Z,13.67
2019-01-28T11:56:13.850Z,14.97
2019-01-28T11:57:18.114Z,13.60
2019-01-28T11:58:22.524Z,12.33
2019-01-28T11:59:26.790Z,11.40
2019-01-28T12:00:41.772Z,14.97
2019-01-28T12:01:46.165Z,14.13
2019-01-28T12:02:50.522Z,14.80
2019-01-28T12:03:54.804Z,15.37
2019-01-28T12:04:59.078Z,14.67
2019-01-28T12:06:03.518Z,13.57
2019-01-28T12:07:10.714Z,16.30
2019-01-28T12:08:15.134Z,15.53
2019-01-28T12:09:19.421Z,16.07
2019-01-28T12:10:23.844Z,18.50
2019-01-28T12:11:28.282Z,15.87
2019-01-28T12:12:32.558Z,19.77
2019-01-28T12:13:36.851Z,16.73
2019-01-28T12:14:41.120Z,17.17
2019-01-28T12:15:45.382Z,15.70
2019-01-28T12:16:49.671Z,17.13
2019-01-28T12:17:54.110Z,15.80
2019-01-28T12:18:58.412Z,16.33
2019-01-28T12:20:02.677Z,12.23
2019-01-28T12:21:07.228Z,12.77
2019-01-28T12:22:11.513Z,12.33
2019-01-28T12:23:15.821Z,11.83
2019-01-28T12:24:20.130Z,13.27
2019-01-28T12:25:24.546Z,12.90
2019-01-28T12:26:28.822Z,16.00
2019-01-28T12:27:33.095Z,13.33
2019-01-28T12:28:37.438Z,13.20
2019-01-28T12:29:41.715Z,13.10
2019-01-28T12:30:46.255Z,10.43
2019-01-28T12:31:50.523Z,10.93
2019-01-28T12:32:54.882Z,11.80
2019-01-28T12:33:59.142Z,10.03
2019-01-28T12:35:04.011Z,10.30
2019-01-28T12:36:08.341Z,9.73
2019-01-28T12:37:14.424Z,10.70
2019-01-28T12:38:18.665Z,10.63
2019-01-28T12:39:23.094Z,14.30
2019-01-28T12:40:27.607Z,11.40
2019-01-28T12:41:31.871Z,11.80
2019-01-28T12:42:36.205Z,10.27
2019-01-28T12:43:40.487Z,11.27
2019-01-28T12:44:44.840Z,11.40
2019-01-28T12:45:49.177Z,14.90
2019-01-28T12:46:53.474Z,9.10
2019-01-28T12:47:58.690Z,11.73
2019-01-28T12:49:02.978Z,11.37
2019-01-28T12:50:08.510Z,9.83
2019-01-28T12:51:12.801Z,10.97
2019-01-28T12:52:17.205Z,10.87
2019-01-28T12:53:21.531Z,11.27
2019-01-28T12:54:25.864Z,13.37
2019-01-28T12:55:30.155Z,11.93
2019-01-28T12:56:34.501Z,11.30
2019-01-28T12:57:38.774Z,12.03
2019-01-28T12:58:43.063Z,12.33
2019-01-28T12:59:47.541Z,13.93
2019-01-28T13:00:55.460Z,12.43
2019-01-28T13:01:59.838Z,11.77
2019-01-28T13:03:04.766Z,14.03
2019-01-28T13:04:09.203Z,13.73
2019-01-28T13:05:14.655Z,13.03
2019-01-28T13:06:18.938Z,15.07
2019-01-28T13:07:23.279Z,13.23
2019-01-28T13:08:27.953Z,14.63
2019-01-28T13:09:32.272Z,15.50
2019-01-28T13:10:36.807Z,15.47
2019-01-28T13:11:41.110Z,13.77
2019-01-28T13:12:45.450Z,12.57
2019-01-28T13:13:49.750Z,13.60
2019-01-28T13:14:54.030Z,16.17
2019-01-28T13:15:58.310Z,14.63
2019-01-28T13:17:02.589Z,17.23
2019-01-28T13:18:06.977Z,15.97
2019-01-28T13:19:11.246Z,17.00
2019-01-28T13:20:15.659Z,15.77
2019-01-28T13:21:19.940Z,16.37
2019-01-28T13:22:24.287Z,15.03
2019-01-28T13:23:28.634Z,15.13
2019-01-28T13:24:32.889Z,14.40
2019-01-28T13:25:37.481Z,16.90
2019-01-28T13:26:41.837Z,16.37
2019-01-28T13:27:46.182Z,17.23
2019-01-28T13:28:50.465Z,15.73
2019-01-28T13:29:54.739Z,16.03
2019-01-28T13:30:59.122Z,18.90
2019-01-28T13:32:03.414Z,17.07
2019-01-28T13:33:10.278Z,16.23
2019-01-28T13:34:14.570Z,17.57
2019-01-28T13:35:18.954Z,18.37
2019-01-28T13:36:23.239Z,21.17
2019-01-28T13:37:27.510Z,21.07
2019-01-28T13:38:31.865Z,23.33
2019-01-28T13:39:36.137Z,17.43
2019-01-28T13:40:40.495Z,20.17
2019-01-28T13:41:44.850Z,20.70
2019-01-28T13:42:49.129Z,17.80
2019-01-28T13:43:53.419Z,19.00
2019-01-28T13:44:57.722Z,20.73
2019-01-28T13:46:02.095Z,20.20
2019-01-28T13:47:06.514Z,20.70
2019-01-28T13:48:12.954Z,22.00
2019-01-28T13:49:17.224Z,18.27
2019-01-28T13:50:22.031Z,20.80
2019-01-28T13:51:26.405Z,20.33
2019-01-28T13:52:31.609Z,21.47
2019-01-28T13:53:36.074Z,19.60
2019-01-28T13:54:40.346Z,22.20
2019-01-28T13:55:44.707Z,24.67
2019-01-28T13:56:49.067Z,20.50
2019-01-28T13:57:53.511Z,20.77
2019-01-28T13:58:57.763Z,22.13
2019-01-28T14:00:02.278Z,22.17
2019-01-28T14:01:06.710Z,23.40
2019-01-28T14:02:11.018Z,22.93
2019-01-28T14:03:15.490Z,23.47
2019-01-28T14:04:19.789Z,22.67
2019-01-28T14:05:24.718Z,21.67
2019-01-28T14:06:29.017Z,24.97
2019-01-28T14:07:33.357Z,28.00
2019-01-28T14:08:37.694Z,21.20
2019-01-28T14:09:41.969Z,23.87
2019-01-28T14:10:46.258Z,24.83
2019-01-28T14:11:50.529Z,22.57
2019-01-28T14:12:55.447Z,24.43
2019-01-28T14:13:59.794Z,25.10
2019-01-28T14:15:05.765Z,24.17
2019-01-28T14:16:10.367Z,26.67
2019-01-28T14:17:14.650Z,24.70
2019-01-28T14:18:18.941Z,23.50
2019-01-28T14:19:23.314Z,23.97
2019-01-28T14:20:28.453Z,25.50
2019-01-28T14:21:32.721Z,24.90
2019-01-28T14:22:37.002Z,23.40
2019-01-28T14:23:41.277Z,23.90
2019-01-28T14:24:45.534Z,25.47
2019-01-28T14:25:49.811Z,27.33
2019-01-28T14:26:54.193Z,22.63
2019-01-28T14:27:58.476Z,24.07
2019-01-28T14:29:02.743Z,26.93
2019-01-28T14:30:09.602Z,24.83
2019-01-28T14:31:13.962Z,27.70
2019-01-28T14:32:18.250Z,26.73
2019-01-28T14:33:22.598Z,24.93
2019-01-28T14:34:26.866Z,25.80
2019-01-28T14:35:31.308Z,25.00
2019-01-28T14:36:35.602Z,26.27
2019-01-28T14:37:40.056Z,26.50
2019-01-28T14:38:44.346Z,23.57
2019-01-28T14:39:48.630Z,27.70
2019-01-28T14:40:52.983Z,25.83
2019-01-28T14:41:57.246Z,26.67
2019-01-28T14:43:01.605Z,25.27
2019-01-28T14:44:06.092Z,25.77
2019-01-28T14:45:10.790Z,28.10
2019-01-28T14:46:15.059Z,28.63
2019-01-28T14:47:19.354Z,26.60
2019-01-28T14:48:23.648Z,25.93
2019-01-28T14:49:32.258Z,29.53
2019-01-28T14:50:34.087Z,26.50
2019-01-28T14:51:38.548Z,26.77
2019-01-28T14:52:42.906Z,27.57
2019-01-28T14:53:47.190Z,30.90
2019-01-28T14:54:51.462Z,29.27
2019-01-28T14:55:55.890Z,28.90
2019-01-28T14:57:00.226Z,25.20
2019-01-28T14:58:05.242Z,29.60
2019-01-28T14:59:09.514Z,26.03
2019-01-28T15:00:16.097Z,26.90
2019-01-28T15:01:20.450Z,29.90
2019-01-28T15:02:24.738Z,30.50
2019-01-28T15:03:29.118Z,38.03
2019-01-28T15:04:33.415Z,30.07
2019-01-28T15:05:38.026Z,26.90
2019-01-28T15:06:42.366Z,31.03
2019-01-28T15:07:46.646Z,26.97
2019-01-28T15:08:50.938Z,30.30
2019-01-28T15:09:55.221Z,28.87
2019-01-28T15:10:59.744Z,29.07
2019-01-28T15:12:04.267Z,28.47
2019-01-28T15:13:08.714Z,27.37
2019-01-28T15:14:13.057Z,28.83
2019-01-28T15:15:19.326Z,28.33
2019-01-28T15:16:23.690Z,28.87
2019-01-28T15:17:28.062Z,29.40
2019-01-28T15:18:32.429Z,29.67
2019-01-28T15:19:36.704Z,32.07
2019-01-28T15:20:41.104Z,28.87
2019-01-28T15:21:45.361Z,28.10
2019-01-28T15:22:49.727Z,28.30
2019-01-28T15:23:54.242Z,31.07
2019-01-28T15:24:58.538Z,31.30
2019-01-28T15:26:02.810Z,30.83
2019-01-28T15:27:07.259Z,29.37
2019-01-28T15:28:11.606Z,30.57
2019-01-28T15:29:16.000Z,28.30
2019-01-28T15:30:22.582Z,29.10
2019-01-28T15:31:26.850Z,30.20
2019-01-28T15:32:31.283Z,30.50
2019-01-28T15:33:35.553Z,29.40
2019-01-28T15:34:39.845Z,29.07
2019-01-28T15:35:44.325Z,30.53